Time;durP1;ratioP1;P1;durP2;ratioP2;P2;SDS_P1;SDS_P2;PMS_P1;PMS_P2;Temp;Humidity;BMP_temperature;BMP_pressure;BME280_temperature;BME280_humidity;BME280_pressure;Samples;Min_cycle;Max_cycle;Signal;HPM_P1;HPM_P2
2022/11/28 00:00:00;;;;;;;20.13;9.25;;;;;;;-0.02;67.10;92825.72;2065757;69;20145;-81
2022/11/28 00:02:25;;;;;;;19.70;9.57;;;;;;;-0.11;67.58;92820.63;2066366;69;20161;-79
2022/11/28 00:04:54;;;;;;;14.82;8.48;;;;;;;0.16;67.29;92828.81;2066764;69;20243;-81
2022/11/28 00:07:21;;;;;;;19.80;9.32;;;;;;;0.24;66.82;92824.09;2067688;69;20164;-78
2022/11/28 00:09:46;;;;;;;17.60;8.43;;;;;;;0.36;66.41;92830.84;2066046;69;20239;-77
2022/11/28 00:12:12;;;;;;;18.63;8.82;;;;;;;0.32;67.04;92833.22;2065883;69;20729;-79
2022/11/28 00:14:38;;;;;;;18.77;7.95;;;;;;;0.31;66.75;92817.88;2064973;69;20131;-80
2022/11/28 00:17:03;;;;;;;12.48;6.40;;;;;;;0.42;66.71;92812.06;2064795;69;20163;-78
2022/11/28 00:19:29;;;;;;;15.20;7.15;;;;;;;0.51;66.16;92816.38;2064836;69;20670;-78
2022/11/28 00:21:54;;;;;;;14.15;6.85;;;;;;;0.53;66.04;92810.28;2065002;69;20149;-78
2022/11/28 00:24:20;;;;;;;16.20;7.03;;;;;;;0.60;65.90;92815.16;2064946;69;20149;-79
2022/11/28 00:26:45;;;;;;;14.90;7.07;;;;;;;0.64;65.45;92807.97;2065119;69;20219;-79
2022/11/28 00:29:11;;;;;;;11.10;6.25;;;;;;;0.72;65.27;92810.78;2068339;69;20164;-79
2022/11/28 00:31:41;;;;;;;12.50;5.55;;;;;;;0.69;65.15;92798.78;2068005;69;20153;-79
2022/11/28 00:34:12;;;;;;;11.80;5.90;;;;;;;0.75;65.13;92796.59;2067737;69;20568;-79
2022/11/28 00:36:37;;;;;;;12.27;5.30;;;;;;;0.77;64.74;92787.72;2069592;69;20223;-78
2022/11/28 00:39:04;;;;;;;13.57;6.20;;;;;;;0.77;65.87;92777.38;2071211;69;20591;-78
2022/11/28 00:41:32;;;;;;;12.57;5.30;;;;;;;0.66;66.06;92772.16;2071643;69;20267;-78
2022/11/28 00:43:58;;;;;;;12.55;5.10;;;;;;;0.83;65.70;92770.97;2072376;69;20363;-78
2022/11/28 00:46:24;;;;;;;9.85;4.90;;;;;;;0.89;65.38;92763.97;2072257;69;20148;-79
2022/11/28 00:48:50;;;;;;;8.35;3.00;;;;;;;0.94;64.93;92756.78;2072159;69;20253;-79
2022/11/28 00:51:19;;;;;;;9.35;3.05;;;;;;;0.85;65.52;92751.75;2072390;69;20529;-78
2022/11/28 00:53:47;;;;;;;7.22;3.30;;;;;;;0.96;63.05;92757.72;2072318;69;20251;-78
2022/11/28 00:56:18;;;;;;;6.43;3.58;;;;;;;1.05;62.47;92750.16;2071695;69;20171;-79
2022/11/28 00:58:44;;;;;;;8.32;3.45;;;;;;;1.31;61.76;92754.72;2072209;69;20148;-79
2022/11/28 01:01:15;;;;;;;5.78;3.20;;;;;;;1.34;62.06;92751.59;2072196;69;20679;-78
2022/11/28 01:03:41;;;;;;;9.57;4.90;;;;;;;0.74;65.76;92755.56;2072290;69;20145;-78
2022/11/28 01:06:09;;;;;;;9.43;5.03;;;;;;;0.94;65.34;92749.19;2072053;69;20172;-79
2022/11/28 01:08:35;;;;;;;9.07;4.43;;;;;;;1.18;64.47;92759.09;2071950;69;20206;-79
2022/11/28 01:11:02;;;;;;;10.73;4.80;;;;;;;1.23;64.49;92757.44;2072485;69;20231;-79
2022/11/28 01:13:27;;;;;;;10.85;5.15;;;;;;;0.79;67.06;92742.84;2072408;69;20152;-79
2022/11/28 01:15:53;;;;;;;11.10;5.15;;;;;;;1.00;66.30;92747.00;2072225;69;20144;-79
2022/11/28 01:18:19;;;;;;;11.00;5.25;;;;;;;1.12;66.18;92752.97;2072101;69;20199;-79
2022/11/28 01:20:46;;;;;;;11.25;5.10;;;;;;;1.02;66.22;92758.28;2072321;69;20286;-79
2022/11/28 01:23:11;;;;;;;8.48;4.90;;;;;;;1.07;65.88;92748.34;2071951;69;20175;-80
2022/11/28 01:25:37;;;;;;;11.07;5.07;;;;;;;1.16;65.86;92753.38;2072596;69;20159;-79
2022/11/28 01:28:05;;;;;;;8.70;3.92;;;;;;;1.31;65.55;92747.13;2075316;69;20163;-78
2022/11/28 01:30:33;;;;;;;7.35;4.00;;;;;;;1.18;65.35;92752.81;2076293;69;20154;-79
2022/11/28 01:32:58;;;;;;;11.95;4.60;;;;;;;1.06;66.27;92749.63;2075936;69;20246;-79
2022/11/28 01:35:24;;;;;;;9.10;4.70;;;;;;;1.17;66.02;92746.53;2075675;69;20151;-79
2022/11/28 01:37:50;;;;;;;8.50;4.55;;;;;;;1.23;65.48;92749.84;2075466;69;20159;-80
2022/11/28 01:40:15;;;;;;;9.10;4.70;;;;;;;1.38;65.02;92749.19;2075633;69;20239;-79
2022/11/28 01:42:41;;;;;;;8.55;4.22;;;;;;;1.38;65.24;92751.97;2075550;69;20131;-80
2022/11/28 01:45:29;;;;;;;8.48;4.07;;;;;;;1.38;64.84;92746.41;2075327;69;20258;-80
2022/11/28 01:47:59;;;;;;;8.70;4.45;;;;;;;1.00;66.16;92740.72;2075111;69;20143;-80
2022/11/28 01:50:27;;;;;;;10.23;5.97;;;;;;;1.03;66.75;92745.16;2075598;69;20164;-79
2022/11/28 01:52:56;;;;;;;10.93;4.72;;;;;;;1.20;66.10;92739.88;2074932;69;20255;-79
2022/11/28 01:55:25;;;;;;;8.00;4.18;;;;;;;1.24;65.73;92740.28;2074859;69;20148;-80
2022/11/28 01:57:53;;;;;;;7.78;4.10;;;;;;;1.30;65.55;92729.00;2071457;69;20574;-79
2022/11/28 02:00:20;;;;;;;9.30;4.30;;;;;;;1.22;66.03;92722.69;2071651;69;20608;-79
2022/11/28 02:02:53;;;;;;;10.10;4.65;;;;;;;0.94;66.98;92726.28;2071392;69;20145;-78
2022/11/28 02:05:20;;;;;;;8.95;4.13;;;;;;;1.20;66.23;92723.25;2071585;69;20180;-79
2022/11/28 02:07:46;;;;;;;8.90;4.25;;;;;;;1.37;65.39;92719.22;2074834;69;20611;-78
2022/11/28 02:10:24;;;;;;;7.97;3.90;;;;;;;1.34;65.68;92725.88;2075000;69;20151;-79
2022/11/28 02:13:15;;;;;;;8.75;4.18;;;;;;;1.32;65.64;92720.13;2074981;69;20176;-79
2022/11/28 02:16:08;;;;;;;8.55;4.50;;;;;;;1.39;65.77;92724.97;2071602;69;20163;-79
2022/11/28 02:18:39;;;;;;;8.55;4.15;;;;;;;1.18;66.69;92717.50;2071360;69;20475;-78
2022/11/28 02:21:32;;;;;;;8.37;4.30;;;;;;;1.16;67.01;92714.53;2071596;69;20222;-78
2022/11/28 02:24:01;;;;;;;7.50;4.53;;;;;;;1.29;66.78;92718.47;2071384;69;20495;-79
2022/11/28 02:26:48;;;;;;;9.88;4.63;;;;;;;1.29;66.95;92721.25;2071425;69;20251;-78
2022/11/28 02:29:44;;;;;;;7.82;4.63;;;;;;;1.32;67.05;92726.41;2071139;69;20170;-78
2022/11/28 02:32:28;;;;;;;7.60;4.75;;;;;;;1.41;66.50;92720.34;2053831;70;20202;-79
2022/11/28 02:35:06;;;;;;;9.85;4.45;;;;;;;1.44;66.19;92704.63;2053856;70;20162;-79
2022/11/28 02:37:39;;;;;;;7.63;3.70;;;;;;;1.54;65.84;92702.78;2053836;70;20239;-78
2022/11/28 02:40:15;;;;;;;6.38;3.30;;;;;;;1.67;65.01;92694.31;2050229;70;20201;-79
2022/11/28 02:43:01;;;;;;;7.65;3.60;;;;;;;1.73;64.44;92700.41;2053186;70;20156;-77
2022/11/28 02:46:01;;;;;;;9.30;3.40;;;;;;;1.81;64.65;92689.31;2051052;70;20209;-77
2022/11/28 02:48:51;;;;;;;4.53;2.47;;;;;;;1.68;65.01;92690.22;2053706;70;20134;-77
2022/11/28 02:51:47;;;;;;;7.78;3.90;;;;;;;1.64;65.77;92689.84;2053639;70;20145;-77
2022/11/28 02:54:15;;;;;;;7.88;3.88;;;;;;;1.40;67.21;92701.47;2053705;70;20141;-78
2022/11/28 02:56:49;;;;;;;9.23;3.67;;;;;;;1.58;66.09;92685.78;2053908;70;20162;-78
2022/11/28 02:59:37;;;;;;;5.75;3.15;;;;;;;1.69;66.36;92679.88;2053911;70;20154;-77
2022/11/28 03:02:22;;;;;;;5.97;2.05;;;;;;;2.03;61.92;92682.28;2053556;70;20165;-77
2022/11/28 03:04:48;;;;;;;4.30;2.05;;;;;;;2.22;60.25;92688.19;2053890;70;20170;-76
2022/11/28 03:07:38;;;;;;;8.45;3.63;;;;;;;1.40;67.22;92690.38;2051260;70;20157;-79
2022/11/28 03:10:29;;;;;;;6.13;3.50;;;;;;;1.55;66.94;92693.16;2070023;69;20545;-77
2022/11/28 03:13:05;;;;;;;9.13;3.38;;;;;;;1.79;66.08;92689.16;2068232;69;20143;-77
2022/11/28 03:15:59;;;;;;;6.70;3.50;;;;;;;1.80;65.76;92685.06;2071486;69;20506;-78
2022/11/28 03:18:32;;;;;;;6.45;3.30;;;;;;;1.90;65.53;92677.66;2064088;69;20741;-78
2022/11/28 03:21:07;;;;;;;5.78;2.80;;;;;;;1.87;65.44;92673.22;2070984;69;20180;-79
2022/11/28 03:23:43;;;;;;;6.03;3.08;;;;;;;2.00;65.27;92667.47;2068098;69;20217;-79
2022/11/28 03:26:28;;;;;;;9.00;3.10;;;;;;;2.03;64.65;92660.09;2072068;69;20144;-79
2022/11/28 03:29:00;;;;;;;6.07;2.90;;;;;;;2.09;64.41;92655.06;2071932;69;20229;-79
2022/11/28 03:31:53;;;;;;;11.13;3.97;;;;;;;2.11;64.81;92635.06;2071323;69;20147;-79
2022/11/28 03:34:21;;;;;;;;;;;;;;;2.26;63.25;92635.06;2071551;69;20143;-79
2022/11/28 03:36:53;;;;;;;6.40;2.90;;;;;;;2.34;62.60;92637.81;2071315;69;20047;-79
2022/11/28 03:39:23;;;;;;;5.75;2.35;;;;;;;2.43;60.39;92626.88;2071377;69;20152;-79
2022/11/28 03:41:57;;;;;;;3.95;1.77;;;;;;;2.45;62.51;92629.09;2071390;69;20179;-78
2022/11/28 03:44:29;;;;;;;4.68;1.60;;;;;;;2.46;61.04;92636.13;2071386;69;20156;-80
2022/11/28 03:47:02;;;;;;;3.28;1.40;;;;;;;2.53;61.75;92625.00;2071276;69;20152;-80
2022/11/28 03:49:41;;;;;;;3.10;1.55;;;;;;;2.69;60.17;92617.31;2071488;69;20148;-76
2022/11/28 03:52:30;;;;;;;4.00;1.60;;;;;;;2.67;61.03;92627.53;2071675;69;20144;-77
2022/11/28 03:55:04;;;;;;;7.15;2.80;;;;;;;2.59;62.61;92633.13;2071375;69;20239;-77
2022/11/28 03:57:34;;;;;;;7.32;2.80;;;;;;;2.55;62.47;92638.31;2071354;69;20240;-76
2022/11/28 04:00:06;;;;;;;6.13;2.72;;;;;;;2.56;62.86;92639.78;2068065;69;20159;-78
2022/11/28 04:03:06;;;;;;;5.13;2.53;;;;;;;2.75;61.89;92640.13;2071295;69;20136;-78
2022/11/28 04:06:03;;;;;;;5.63;2.75;;;;;;;2.84;61.42;92638.78;2071500;69;20219;-78
2022/11/28 04:08:35;;;;;;;5.25;2.65;;;;;;;2.81;61.72;92631.56;2071323;69;20205;-77
2022/11/28 04:11:16;;;;;;;;;;;;;;;2.73;62.45;92633.63;2071856;69;20148;-79
2022/11/28 04:14:04;;;;;;;6.00;3.30;;;;;;;2.65;62.14;92632.91;2071587;69;20130;-79
2022/11/28 04:16:46;;;;;;;5.45;3.35;;;;;;;2.71;61.90;92623.06;2071459;69;20159;-79
2022/11/28 04:19:29;;;;;;;3.50;2.55;;;;;;;2.68;61.21;92613.06;2071366;69;20148;-79
2022/11/28 04:22:03;;;;;;;7.28;2.28;;;;;;;2.91;59.34;92601.09;2071364;69;20159;-78
2022/11/28 04:24:56;;;;;;;5.35;2.33;;;;;;;2.93;59.64;92609.63;2068100;69;20132;-78
2022/11/28 04:27:26;;;;;;;;;;;;;;;3.06;59.83;92612.88;2069202;69;20671;-78
2022/11/28 04:29:55;;;;;;;2.53;1.55;;;;;;;3.00;59.86;92611.63;2071442;69;20048;-78
2022/11/28 04:32:24;;;;;;;4.18;1.80;;;;;;;3.09;57.88;92613.06;2071528;69;20153;-78
2022/11/28 04:34:56;;;;;;;6.25;1.88;;;;;;;3.21;57.58;92612.09;2071393;69;20151;-78
2022/11/28 04:37:26;;;;;;;3.97;1.63;;;;;;;3.31;57.52;92615.72;2071312;69;20223;-78
2022/11/28 04:39:54;;;;;;;3.42;1.65;;;;;;;3.42;56.96;92614.53;2071333;69;20192;-78
2022/11/28 04:42:25;;;;;;;3.60;2.03;;;;;;;3.46;56.84;92614.88;2071377;69;20158;-78
2022/11/28 04:45:02;;;;;;;3.47;1.90;;;;;;;3.48;57.66;92609.50;2071601;69;20145;-78
2022/11/28 04:47:28;;;;;;;3.00;1.92;;;;;;;3.50;57.87;92612.44;2071279;69;20160;-77
2022/11/28 04:49:54;;;;;;;2.47;1.65;;;;;;;3.46;56.91;92609.31;2071377;69;20151;-78
2022/11/28 04:52:22;;;;;;;19.50;6.15;;;;;;;3.52;56.50;92598.69;2071618;69;20192;-77
2022/11/28 04:55:11;;;;;;;48.60;14.50;;;;;;;3.61;57.08;92597.31;2071561;69;20151;-78
2022/11/28 04:57:51;;;;;;;4.25;2.10;;;;;;;3.68;57.28;92602.09;2071392;69;20149;-78
2022/11/28 05:00:19;;;;;;;12.02;3.90;;;;;;;3.80;55.50;92603.13;2071281;69;20143;-78
2022/11/28 05:02:48;;;;;;;232.02;59.00;;;;;;;3.61;56.35;92605.69;2071145;69;20144;-78
2022/11/28 05:05:18;;;;;;;6.25;2.90;;;;;;;3.01;60.41;92613.09;2071282;69;20156;-78
2022/11/28 05:07:44;;;;;;;10.30;3.97;;;;;;;3.46;59.65;92612.09;2071226;69;20187;-78
2022/11/28 05:10:12;;;;;;;8.52;3.67;;;;;;;2.92;63.37;92613.72;2071507;69;20259;-78
2022/11/28 05:12:38;;;;;;;6.22;3.28;;;;;;;3.26;62.25;92627.06;2068122;69;20544;-78
2022/11/28 05:15:04;;;;;;;17.50;9.32;;;;;;;3.28;62.05;92627.25;2071090;69;20622;-78
2022/11/28 05:17:30;;;;;;;24.85;13.20;;;;;;;3.40;61.91;92616.41;2071315;69;20187;-77
2022/11/28 05:19:56;;;;;;;27.10;15.82;;;;;;;3.47;61.19;92612.84;2071778;69;20136;-77
2022/11/28 05:22:21;;;;;;;28.30;15.82;;;;;;;3.20;62.16;92618.19;2068840;69;20513;-78
2022/11/28 05:24:47;;;;;;;20.52;12.73;;;;;;;3.22;62.24;92612.81;2067976;69;20144;-78
2022/11/28 05:27:13;;;;;;;14.60;9.45;;;;;;;3.12;62.21;92617.53;2071165;69;20266;-78
2022/11/28 05:29:42;;;;;;;12.27;7.93;;;;;;;3.23;61.24;92606.69;2071765;69;20182;-78
2022/11/28 05:32:11;;;;;;;13.57;8.10;;;;;;;3.40;61.05;92613.63;2068344;69;20232;-78
2022/11/28 05:34:37;;;;;;;12.02;7.60;;;;;;;3.33;61.07;92604.03;2071663;69;20202;-78
2022/11/28 05:37:03;;;;;;;14.75;7.80;;;;;;;3.32;61.23;92602.56;2071975;69;20145;-78
2022/11/28 05:39:29;;;;;;;13.07;8.25;;;;;;;3.34;61.44;92599.94;2071656;69;20583;-78
2022/11/28 05:41:55;;;;;;;14.85;7.75;;;;;;;3.30;61.39;92602.38;2071608;69;20144;-78
2022/11/28 05:44:21;;;;;;;14.00;7.95;;;;;;;3.48;61.03;92595.59;2071822;69;20272;-78
2022/11/28 05:46:46;;;;;;;14.40;7.63;;;;;;;3.47;61.18;92598.91;2071624;69;20579;-78
2022/11/28 05:49:12;;;;;;;11.15;7.05;;;;;;;3.39;61.95;92603.78;2071672;69;20156;-78
2022/11/28 05:51:38;;;;;;;11.23;6.80;;;;;;;3.49;61.17;92599.09;2071726;69;20152;-78
2022/11/28 05:54:04;;;;;;;12.60;7.10;;;;;;;3.38;61.59;92602.31;2068222;69;20210;-78
2022/11/28 05:56:30;;;;;;;12.18;7.03;;;;;;;3.20;62.63;92602.25;2071742;69;20156;-78
2022/11/28 05:58:56;;;;;;;13.20;7.32;;;;;;;3.18;62.92;92602.06;2068164;69;20139;-78
2022/11/28 06:01:26;;;;;;;11.70;5.38;;;;;;;2.86;64.75;92602.06;2071714;69;20151;-78
2022/11/28 06:03:58;;;;;;;11.00;4.85;;;;;;;3.01;64.22;92602.72;2071423;69;20560;-78
2022/11/28 06:06:25;;;;;;;11.23;5.75;;;;;;;3.15;64.21;92605.25;2071665;69;20156;-78
2022/11/28 06:08:51;;;;;;;13.63;6.22;;;;;;;3.24;63.58;92610.19;2071513;69;20148;-78
2022/11/28 06:11:21;;;;;;;11.48;6.00;;;;;;;3.31;62.85;92609.44;2073263;69;20510;-78
2022/11/28 06:13:48;;;;;;;9.48;5.63;;;;;;;3.25;62.63;92604.09;2071629;69;20239;-78
2022/11/28 06:16:16;;;;;;;9.70;5.50;;;;;;;3.23;62.22;92612.25;2071503;69;20585;-79
2022/11/28 06:18:42;;;;;;;9.00;4.90;;;;;;;3.37;62.15;92609.19;2071461;69;20133;-78
2022/11/28 06:21:10;;;;;;;7.40;4.40;;;;;;;3.36;61.88;92621.63;2071638;69;20232;-78
2022/11/28 06:23:36;;;;;;;7.80;4.18;;;;;;;3.47;61.35;92616.34;2068241;69;20589;-78
2022/11/28 06:26:07;;;;;;;6.95;3.70;;;;;;;3.43;61.20;92618.06;2071653;69;20208;-78
2022/11/28 06:28:33;;;;;;;15.68;7.80;;;;;;;3.30;61.74;92621.88;2068213;69;20144;-78
2022/11/28 06:30:59;;;;;;;15.02;9.02;;;;;;;3.25;61.75;92629.13;2068512;69;20171;-78
2022/11/28 06:33:25;;;;;;;13.25;8.00;;;;;;;3.28;61.41;92618.91;2071411;69;20267;-78
2022/11/28 06:35:50;;;;;;;9.50;5.38;;;;;;;3.20;61.74;92618.19;2071813;69;20243;-78
2022/11/28 06:38:16;;;;;;;11.65;5.78;;;;;;;3.33;61.66;92620.72;2068050;69;20156;-78
2022/11/28 06:40:42;;;;;;;12.07;5.72;;;;;;;3.35;61.34;92626.47;2071716;69;20244;-78
2022/11/28 06:43:08;;;;;;;10.27;5.53;;;;;;;3.42;61.21;92630.50;2068278;69;20172;-78
2022/11/28 06:45:34;;;;;;;9.80;5.47;;;;;;;3.35;61.40;92631.31;2065362;69;20124;-78
2022/11/28 06:48:00;;;;;;;9.05;5.28;;;;;;;3.37;61.65;92626.63;2071359;69;20175;-77
2022/11/28 06:50:27;;;;;;;10.05;5.65;;;;;;;3.44;60.99;92627.91;2071611;69;20540;-78
2022/11/28 06:52:55;;;;;;;11.48;6.10;;;;;;;3.36;60.87;92625.16;2071437;69;20589;-78
2022/11/28 06:55:21;;;;;;;13.07;5.65;;;;;;;3.37;61.46;92631.47;2071476;69;20223;-78
2022/11/28 06:57:46;;;;;;;11.00;5.13;;;;;;;3.37;62.23;92634.97;2068117;69;20136;-78
2022/11/28 07:00:12;;;;;;;10.57;5.28;;;;;;;3.43;61.53;92627.13;2068353;69;20155;-77
2022/11/28 07:02:38;;;;;;;11.73;5.18;;;;;;;3.50;61.08;92623.56;2071501;69;20194;-78
2022/11/28 07:05:04;;;;;;;10.32;5.25;;;;;;;3.47;61.29;92624.69;2071673;69;20234;-77
2022/11/28 07:07:29;;;;;;;11.00;4.68;;;;;;;3.52;60.73;92626.53;2071663;69;20160;-78
2022/11/28 07:09:55;;;;;;;8.60;4.50;;;;;;;3.55;60.93;92614.25;2071677;69;20213;-78
2022/11/28 07:12:20;;;;;;;11.75;4.78;;;;;;;3.51;60.96;92613.19;2071980;69;20218;-78
2022/11/28 07:14:46;;;;;;;12.35;5.10;;;;;;;3.55;60.72;92607.97;2072279;69;20160;-78
2022/11/28 07:17:11;;;;;;;8.20;5.28;;;;;;;3.60;60.82;92609.78;2071440;69;20319;-78
2022/11/28 07:19:37;;;;;;;10.07;5.60;;;;;;;3.48;61.38;92605.97;2071531;69;20146;-78
2022/11/28 07:22:03;;;;;;;12.45;6.15;;;;;;;3.46;61.46;92605.78;2071654;69;20152;-78
2022/11/28 07:24:29;;;;;;;12.02;6.05;;;;;;;3.50;62.53;92597.78;2071576;69;20160;-77
2022/11/28 07:26:55;;;;;;;14.43;8.32;;;;;;;3.49;62.21;92587.97;2071446;69;20164;-78
2022/11/28 07:29:23;;;;;;;14.43;7.55;;;;;;;3.50;62.45;92589.44;2071453;69;20239;-78
2022/11/28 07:31:49;;;;;;;37.28;15.65;;;;;;;3.07;64.22;92594.19;2071485;69;20184;-78
2022/11/28 07:34:15;;;;;;;32.65;14.50;;;;;;;3.33;63.63;92578.97;2071175;69;20152;-78
2022/11/28 07:36:40;;;;;;;23.35;11.52;;;;;;;2.98;65.62;92595.53;2071460;69;20159;-78
2022/11/28 07:39:07;;;;;;;17.92;9.73;;;;;;;3.21;65.03;92587.03;2071401;69;20231;-78
2022/11/28 07:41:33;;;;;;;16.83;8.55;;;;;;;3.42;64.16;92592.28;2071553;69;20239;-78
2022/11/28 07:44:01;;;;;;;18.83;7.70;;;;;;;2.71;63.10;92591.75;2071336;69;20132;-78
2022/11/28 07:46:28;;;;;;;13.65;7.15;;;;;;;3.18;62.50;92581.88;2068001;69;20148;-77
2022/11/28 07:48:54;;;;;;;17.38;8.65;;;;;;;2.78;64.93;92579.84;2067906;69;20200;-77
2022/11/28 07:51:22;;;;;;;15.98;9.05;;;;;;;3.14;64.71;92578.75;2071306;69;20650;-77
2022/11/28 07:53:48;;;;;;;17.10;8.48;;;;;;;3.35;64.19;92575.66;2071449;69;20183;-78
2022/11/28 07:56:20;;;;;;;16.67;7.68;;;;;;;3.53;63.70;92572.34;2067953;69;20175;-78
2022/11/28 07:58:47;;;;;;;17.90;8.55;;;;;;;3.55;63.46;92569.00;2071328;69;20152;-76
2022/11/28 08:01:18;;;;;;;17.50;7.88;;;;;;;3.16;63.65;92567.78;2071272;69;20159;-77
2022/11/28 08:03:45;;;;;;;12.80;7.50;;;;;;;2.89;64.28;92564.81;2067930;69;20175;-77
2022/11/28 08:06:12;;;;;;;15.88;8.93;;;;;;;3.10;64.46;92570.78;2067908;69;20280;-77
2022/11/28 08:08:38;;;;;;;21.67;10.68;;;;;;;3.41;64.07;92565.75;2071279;69;20129;-77
2022/11/28 08:11:07;;;;;;;22.40;11.38;;;;;;;3.52;64.03;92570.13;2068018;69;20147;-77
2022/11/28 08:13:33;;;;;;;19.92;10.60;;;;;;;3.64;62.45;92571.16;2071361;69;20148;-77
2022/11/28 08:16:05;;;;;;;21.08;8.57;;;;;;;3.67;62.06;92575.59;2071307;69;20137;-77
2022/11/28 08:18:33;;;;;;;19.53;8.87;;;;;;;3.44;62.48;92575.75;2071388;69;20614;-77
2022/11/28 08:21:11;;;;;;;17.52;8.75;;;;;;;3.33;61.82;92570.63;2071280;69;20159;-77
2022/11/28 08:23:38;;;;;;;21.70;8.98;;;;;;;3.46;60.98;92572.41;2071317;69;20238;-77
2022/11/28 08:26:06;;;;;;;19.45;8.63;;;;;;;3.71;60.47;92577.94;2067929;69;20129;-78
2022/11/28 08:28:32;;;;;;;19.17;9.55;;;;;;;3.65;60.11;92569.84;2071242;69;20467;-78
2022/11/28 08:31:00;;;;;;;23.45;9.98;;;;;;;3.86;60.00;92569.47;2067917;69;20204;-77
2022/11/28 08:33:26;;;;;;;25.75;12.75;;;;;;;3.75;61.05;92564.38;2071181;69;20147;-77
2022/11/28 08:35:52;;;;;;;30.35;13.43;;;;;;;3.83;61.57;92560.22;2071264;69;20228;-77
2022/11/28 08:38:18;;;;;;;30.60;12.85;;;;;;;3.93;61.17;92559.56;2071154;69;20602;-77
2022/11/28 08:40:43;;;;;;;28.13;12.20;;;;;;;4.02;60.77;92556.88;2071296;69;20160;-77
2022/11/28 08:43:09;;;;;;;23.90;10.48;;;;;;;3.93;60.16;92556.78;2071175;69;20162;-77
2022/11/28 08:45:36;;;;;;;35.35;15.40;;;;;;;3.68;61.36;92542.91;2071327;69;20562;-77
2022/11/28 08:48:02;;;;;;;53.40;20.38;;;;;;;3.72;60.90;92546.03;2071153;69;20140;-77
2022/11/28 08:50:28;;;;;;;49.65;19.58;;;;;;;3.96;60.88;92550.06;2071298;69;20144;-78
2022/11/28 08:52:53;;;;;;;45.13;19.15;;;;;;;4.13;60.80;92555.66;2071223;69;20605;-77
2022/11/28 08:55:20;;;;;;;44.88;18.15;;;;;;;4.19;60.72;92561.72;2071307;69;20329;-77
2022/11/28 08:57:47;;;;;;;45.78;17.40;;;;;;;4.17;60.89;92567.16;2067779;69;20162;-77
2022/11/28 09:00:14;;;;;;;40.65;17.42;;;;;;;4.29;60.98;92568.13;2071286;69;20242;-78
2022/11/28 09:02:40;;;;;;;38.30;16.08;;;;;;;4.21;60.32;92575.81;2072093;69;20241;-78
2022/11/28 09:05:05;;;;;;;31.85;15.38;;;;;;;4.03;61.56;92572.31;2071917;69;20174;-77
2022/11/28 09:07:32;;;;;;;30.27;15.48;;;;;;;4.21;61.74;92566.72;2071739;69;20180;-77
2022/11/28 09:09:57;;;;;;;35.05;16.15;;;;;;;4.26;61.94;92571.31;2071774;69;20144;-77
2022/11/28 09:12:25;;;;;;;34.35;15.75;;;;;;;4.46;61.66;92578.53;2071797;69;20158;-77
2022/11/28 09:14:51;;;;;;;35.90;15.57;;;;;;;4.49;61.24;92579.44;2072059;69;20235;-78
2022/11/28 09:17:17;;;;;;;34.47;16.55;;;;;;;4.62;61.69;92578.34;2071535;69;20151;-77
2022/11/28 09:19:43;;;;;;;29.17;15.40;;;;;;;4.67;61.52;92575.31;2071460;69;20228;-77
2022/11/28 09:22:09;;;;;;;30.73;14.90;;;;;;;4.77;61.33;92573.34;2068264;69;20241;-78
2022/11/28 09:24:36;;;;;;;33.88;13.70;;;;;;;4.80;61.55;92579.81;2071774;69;20288;-77
2022/11/28 09:27:02;;;;;;;33.75;15.18;;;;;;;4.17;61.98;92560.81;2071666;69;20745;-77
2022/11/28 09:29:28;;;;;;;36.55;15.02;;;;;;;4.59;61.27;92561.47;2068362;69;20223;-77
2022/11/28 09:31:53;;;;;;;32.78;15.35;;;;;;;4.61;61.16;92563.69;2071664;69;20170;-77
2022/11/28 09:34:20;;;;;;;32.35;15.18;;;;;;;4.87;60.40;92550.38;2071759;69;20147;-77
2022/11/28 09:36:45;;;;;;;32.72;14.93;;;;;;;4.73;60.99;92563.94;2071616;69;20144;-77
2022/11/28 09:39:11;;;;;;;26.67;14.60;;;;;;;5.04;60.15;92555.88;2071675;69;20148;-78
2022/11/28 09:41:45;;;;;;;36.72;15.40;;;;;;;5.10;59.89;92551.53;2071745;69;20235;-77
2022/11/28 09:44:24;;;;;;;33.58;16.33;;;;;;;5.25;60.40;92550.56;2071606;69;20701;-78
2022/11/28 09:46:54;;;;;;;31.92;15.18;;;;;;;5.35;59.87;92550.63;2073092;69;20311;-77
2022/11/28 09:49:30;;;;;;;28.50;15.07;;;;;;;5.46;59.55;92561.25;2069437;69;20160;-76
2022/11/28 09:52:05;;;;;;;29.00;15.05;;;;;;;5.43;58.75;92545.66;2071974;69;20192;-77
2022/11/28 09:55:08;;;;;;;26.88;13.68;;;;;;;5.57;59.00;92541.16;2071550;69;20677;-77
2022/11/28 09:57:55;;;;;;;;;;;;;;;5.63;59.09;92535.28;2071858;69;20156;-78
2022/11/28 10:00:30;;;;;;;29.15;13.75;;;;;;;5.34;59.01;92538.72;2071767;69;20165;-77
2022/11/28 10:03:06;;;;;;;24.27;12.60;;;;;;;5.64;58.89;92528.41;2071451;69;20140;-78
2022/11/28 10:05:41;;;;;;;25.02;12.88;;;;;;;5.71;58.15;92527.53;2071477;69;20227;-77
2022/11/28 10:08:35;;;;;;;25.55;13.48;;;;;;;5.88;58.31;92523.16;2071639;69;20253;-82
2022/11/28 10:11:18;;;;;;;25.00;13.90;;;;;;;5.75;58.34;92518.72;2071698;69;20167;-77
2022/11/28 10:14:21;;;;;;;30.50;14.07;;;;;;;5.90;58.13;92520.50;2071483;69;20212;-77
2022/11/28 10:17:14;;;;;;;25.23;14.05;;;;;;;5.67;57.93;92516.06;2071501;69;20152;-77
2022/11/28 10:19:49;;;;;;;23.73;11.30;;;;;;;5.77;57.88;92522.41;2068206;69;20202;-77
2022/11/28 10:22:21;;;;;;;44.25;19.73;;;;;;;5.93;57.36;92513.78;2071558;69;20579;-77
2022/11/28 10:24:51;;;;;;;36.45;16.20;;;;;;;6.01;57.28;92515.13;2068233;69;20199;-77
2022/11/28 10:27:17;;;;;;;30.67;15.20;;;;;;;6.08;57.96;92517.03;2071501;69;20261;-77
2022/11/28 10:29:58;;;;;;;32.67;15.93;;;;;;;6.15;58.48;92509.13;2071549;69;20186;-77
2022/11/28 10:32:31;;;;;;;31.60;14.50;;;;;;;6.35;58.36;92510.59;2071553;69;20148;-77
2022/11/28 10:35:20;;;;;;;31.17;13.93;;;;;;;6.32;57.24;92497.78;2071539;69;20160;-77
2022/11/28 10:37:49;;;;;;;24.73;11.77;;;;;;;6.44;57.50;92501.47;2068209;69;20570;-77
2022/11/28 10:40:30;;;;;;;32.60;12.63;;;;;;;6.46;56.64;92504.44;2071498;69;20274;-76
2022/11/28 10:43:02;;;;;;;30.02;13.68;;;;;;;6.52;55.95;92490.16;2071445;69;20136;-80
2022/11/28 10:45:45;;;;;;;26.85;13.48;;;;;;;6.37;55.18;92491.19;2071712;69;20171;-79
2022/11/28 10:48:46;;;;;;;27.27;12.70;;;;;;;6.38;54.03;92486.31;2071372;69;20147;-80
2022/11/28 10:51:42;;;;;;;22.42;11.13;;;;;;;6.54;53.89;92481.88;2071616;69;20540;-76
2022/11/28 10:54:49;;;;;;;28.90;10.73;;;;;;;6.78;53.63;92475.25;2071538;69;20136;-78
2022/11/28 10:57:49;;;;;;;20.02;10.35;;;;;;;6.62;54.32;92468.50;2071489;69;20148;-79
2022/11/28 11:00:19;;;;;;;25.13;10.73;;;;;;;6.41;54.82;92462.75;2071470;69;20316;-77
2022/11/28 11:02:49;;;;;;;24.25;10.80;;;;;;;6.69;54.48;92464.81;2071276;69;20567;-77
2022/11/28 11:05:19;;;;;;;19.48;9.75;;;;;;;6.79;53.83;92471.13;2071521;69;20246;-79
2022/11/28 11:07:51;;;;;;;19.25;9.68;;;;;;;6.68;52.06;92477.31;2071602;69;20133;-79
2022/11/28 11:10:37;;;;;;;18.90;9.40;;;;;;;6.75;53.25;92473.63;2071513;69;20152;-79
2022/11/28 11:13:25;;;;;;;25.00;10.35;;;;;;;6.87;55.10;92471.69;2068037;69;20614;-78
2022/11/28 11:16:04;;;;;;;22.42;9.00;;;;;;;6.95;55.93;92465.19;2071497;69;20231;-78
2022/11/28 11:18:54;;;;;;;33.35;11.43;;;;;;;6.91;56.17;92462.09;2071269;69;20628;-77
2022/11/28 11:21:23;;;;;;;27.65;10.95;;;;;;;6.98;56.49;92469.59;2071438;69;20128;-78
2022/11/28 11:24:09;;;;;;;25.77;11.63;;;;;;;6.99;56.46;92471.06;2071408;69;20242;-77
2022/11/28 11:26:39;;;;;;;33.03;15.15;;;;;;;7.07;55.77;92463.97;2071316;69;20560;-78
2022/11/28 11:29:04;;;;;;;28.73;13.27;;;;;;;7.05;55.28;92463.09;2065234;69;20136;-77
2022/11/28 11:31:40;;;;;;;24.70;11.15;;;;;;;7.10;55.15;92456.44;2071427;69;20168;-77
2022/11/28 11:34:16;;;;;;;24.05;11.02;;;;;;;7.22;53.64;92457.28;2071256;69;20318;-78
2022/11/28 11:36:42;;;;;;;26.85;13.40;;;;;;;7.20;52.54;92459.22;2071573;69;20591;-79
2022/11/28 11:39:11;;;;;;;55.40;27.58;;;;;;;6.96;55.14;92450.59;2071391;69;20155;-77
2022/11/28 11:41:59;;;;;;;52.50;22.02;;;;;;;7.32;55.67;92460.78;2071310;69;20618;-76
2022/11/28 11:44:28;;;;;;;32.42;13.82;;;;;;;7.20;55.59;92448.03;2068635;69;20237;-78
2022/11/28 11:46:55;;;;;;;30.65;14.30;;;;;;;7.37;55.38;92448.50;2071263;69;20140;-77
2022/11/28 11:49:40;;;;;;;34.70;15.50;;;;;;;7.42;54.30;92446.72;2071471;69;20765;-79
2022/11/28 11:52:12;;;;;;;32.42;14.90;;;;;;;7.46;54.26;92449.06;2071511;69;20184;-77
2022/11/28 11:54:56;;;;;;;32.67;15.00;;;;;;;7.64;53.35;92448.22;2071579;69;20148;-77